sensor_id;sensor_type;location;lat;lon;timestamp;P1;durP1;ratioP1;P2;durP2;ratioP2
4636;SDS011;2331;48.806;9.140;2022-11-30T00:00:19;42.50;;;21.33;;
4636;SDS011;2331;48.806;9.140;2022-11-30T00:02:47;39.30;;;22.10;;
4636;SDS011;2331;48.806;9.140;2022-11-30T00:05:19;38.20;;;22.25;;
4636;SDS011;2331;48.806;9.140;2022-11-30T00:07:46;43.83;;;22.25;;
4636;SDS011;2331;48.806;9.140;2022-11-30T00:10:13;41.88;;;21.60;;
4636;SDS011;2331;48.806;9.140;2022-11-30T00:12:40;42.65;;;22.60;;
4636;SDS011;2331;48.806;9.140;2022-11-30T00:15:07;46.13;;;24.15;;
4636;SDS011;2331;48.806;9.140;2022-11-30T00:17:36;43.40;;;22.83;;
4636;SDS011;2331;48.806;9.140;2022-11-30T00:20:03;43.42;;;21.45;;
4636;SDS011;2331;48.806;9.140;2022-11-30T00:22:32;41.08;;;22.58;;
4636;SDS011;2331;48.806;9.140;2022-11-30T00:24:58;42.22;;;21.77;;
4636;SDS011;2331;48.806;9.140;2022-11-30T00:27:27;49.13;;;22.67;;
4636;SDS011;2331;48.806;9.140;2022-11-30T00:29:53;48.20;;;23.65;;
4636;SDS011;2331;48.806;9.140;2022-11-30T00:32:20;42.63;;;22.65;;
4636;SDS011;2331;48.806;9.140;2022-11-30T00:34:47;43.47;;;22.40;;
4636;SDS011;2331;48.806;9.140;2022-11-30T00:37:14;40.72;;;21.27;;
4636;SDS011;2331;48.806;9.140;2022-11-30T00:39:42;38.13;;;19.85;;
4636;SDS011;2331;48.806;9.140;2022-11-30T00:42:09;43.25;;;22.88;;
4636;SDS011;2331;48.806;9.140;2022-11-30T00:44:36;42.47;;;22.35;;
4636;SDS011;2331;48.806;9.140;2022-11-30T00:47:03;44.53;;;23.23;;
4636;SDS011;2331;48.806;9.140;2022-11-30T00:49:29;45.53;;;24.00;;
4636;SDS011;2331;48.806;9.140;2022-11-30T00:51:57;47.80;;;22.17;;
4636;SDS011;2331;48.806;9.140;2022-11-30T00:54:24;41.53;;;22.05;;
4636;SDS011;2331;48.806;9.140;2022-11-30T00:56:52;40.55;;;22.17;;
4636;SDS011;2331;48.806;9.140;2022-11-30T00:59:19;40.95;;;22.25;;
4636;SDS011;2331;48.806;9.140;2022-11-30T01:01:46;43.15;;;22.33;;
4636;SDS011;2331;48.806;9.140;2022-11-30T01:04:12;41.90;;;22.67;;
4636;SDS011;2331;48.806;9.140;2022-11-30T01:06:39;42.63;;;22.50;;
4636;SDS011;2331;48.806;9.140;2022-11-30T01:09:06;41.75;;;21.83;;
4636;SDS011;2331;48.806;9.140;2022-11-30T01:11:33;43.85;;;22.77;;
4636;SDS011;2331;48.806;9.140;2022-11-30T01:14:01;38.53;;;21.40;;
4636;SDS011;2331;48.806;9.140;2022-11-30T01:16:28;42.45;;;23.05;;
4636;SDS011;2331;48.806;9.140;2022-11-30T01:18:56;40.03;;;22.00;;
4636;SDS011;2331;48.806;9.140;2022-11-30T01:21:24;39.72;;;21.13;;
4636;SDS011;2331;48.806;9.140;2022-11-30T01:23:53;44.42;;;22.52;;
4636;SDS011;2331;48.806;9.140;2022-11-30T01:26:20;46.92;;;23.83;;
4636;SDS011;2331;48.806;9.140;2022-11-30T01:28:48;44.72;;;23.08;;
4636;SDS011;2331;48.806;9.140;2022-11-30T01:31:17;45.92;;;23.92;;
4636;SDS011;2331;48.806;9.140;2022-11-30T01:33:47;39.72;;;22.02;;
4636;SDS011;2331;48.806;9.140;2022-11-30T01:36:15;41.78;;;21.35;;
4636;SDS011;2331;48.806;9.140;2022-11-30T01:38:43;41.00;;;22.02;;
4636;SDS011;2331;48.806;9.140;2022-11-30T01:41:12;40.17;;;21.73;;
4636;SDS011;2331;48.806;9.140;2022-11-30T01:43:41;38.92;;;21.45;;
4636;SDS011;2331;48.806;9.140;2022-11-30T01:46:17;39.00;;;20.33;;
4636;SDS011;2331;48.806;9.140;2022-11-30T01:48:50;41.53;;;21.65;;
4636;SDS011;2331;48.806;9.140;2022-11-30T01:51:21;38.78;;;20.63;;
4636;SDS011;2331;48.806;9.140;2022-11-30T01:53:48;40.97;;;21.38;;
4636;SDS011;2331;48.806;9.140;2022-11-30T01:56:15;38.28;;;20.38;;
4636;SDS011;2331;48.806;9.140;2022-11-30T01:58:43;40.40;;;21.23;;
4636;SDS011;2331;48.806;9.140;2022-11-30T02:01:09;45.97;;;23.02;;
4636;SDS011;2331;48.806;9.140;2022-11-30T02:03:39;41.25;;;20.60;;
4636;SDS011;2331;48.806;9.140;2022-11-30T02:06:11;36.08;;;21.30;;
4636;SDS011;2331;48.806;9.140;2022-11-30T02:08:38;39.35;;;21.25;;
4636;SDS011;2331;48.806;9.140;2022-11-30T02:11:06;39.85;;;20.45;;
4636;SDS011;2331;48.806;9.140;2022-11-30T02:13:45;39.42;;;20.20;;
4636;SDS011;2331;48.806;9.140;2022-11-30T02:16:26;34.38;;;20.20;;
4636;SDS011;2331;48.806;9.140;2022-11-30T02:22:27;37.22;;;19.90;;
4636;SDS011;2331;48.806;9.140;2022-11-30T02:25:07;30.92;;;17.52;;
4636;SDS011;2331;48.806;9.140;2022-11-30T02:27:42;37.97;;;19.08;;
4636;SDS011;2331;48.806;9.140;2022-11-30T02:30:24;34.25;;;18.70;;
4636;SDS011;2331;48.806;9.140;2022-11-30T02:32:51;36.22;;;18.02;;
4636;SDS011;2331;48.806;9.140;2022-11-30T02:35:23;33.60;;;19.00;;
4636;SDS011;2331;48.806;9.140;2022-11-30T02:37:53;31.88;;;17.75;;
4636;SDS011;2331;48.806;9.140;2022-11-30T02:40:22;39.38;;;19.27;;
4636;SDS011;2331;48.806;9.140;2022-11-30T02:42:49;33.28;;;17.95;;
4636;SDS011;2331;48.806;9.140;2022-11-30T02:45:19;36.45;;;19.40;;
4636;SDS011;2331;48.806;9.140;2022-11-30T02:47:56;34.03;;;19.08;;
4636;SDS011;2331;48.806;9.140;2022-11-30T02:50:31;35.70;;;18.27;;
4636;SDS011;2331;48.806;9.140;2022-11-30T02:53:04;35.08;;;17.92;;
4636;SDS011;2331;48.806;9.140;2022-11-30T02:55:32;31.00;;;16.80;;
4636;SDS011;2331;48.806;9.140;2022-11-30T02:57:59;33.13;;;19.00;;
4636;SDS011;2331;48.806;9.140;2022-11-30T03:00:27;33.80;;;18.90;;
4636;SDS011;2331;48.806;9.140;2022-11-30T03:02:54;34.83;;;18.65;;
4636;SDS011;2331;48.806;9.140;2022-11-30T03:05:20;29.92;;;16.63;;
4636;SDS011;2331;48.806;9.140;2022-11-30T03:07:47;31.52;;;17.02;;
4636;SDS011;2331;48.806;9.140;2022-11-30T03:10:14;32.40;;;18.27;;
4636;SDS011;2331;48.806;9.140;2022-11-30T03:12:41;29.05;;;16.40;;
4636;SDS011;2331;48.806;9.140;2022-11-30T03:15:08;33.42;;;17.77;;
4636;SDS011;2331;48.806;9.140;2022-11-30T03:17:37;30.85;;;17.10;;
4636;SDS011;2331;48.806;9.140;2022-11-30T03:20:04;32.08;;;17.00;;
4636;SDS011;2331;48.806;9.140;2022-11-30T03:22:31;31.73;;;18.02;;
4636;SDS011;2331;48.806;9.140;2022-11-30T03:24:58;35.13;;;18.55;;
4636;SDS011;2331;48.806;9.140;2022-11-30T03:27:25;35.63;;;18.23;;
4636;SDS011;2331;48.806;9.140;2022-11-30T03:29:52;35.58;;;18.45;;
4636;SDS011;2331;48.806;9.140;2022-11-30T03:32:18;29.33;;;16.25;;
4636;SDS011;2331;48.806;9.140;2022-11-30T03:34:46;30.10;;;17.60;;
4636;SDS011;2331;48.806;9.140;2022-11-30T03:37:13;31.95;;;17.35;;
4636;SDS011;2331;48.806;9.140;2022-11-30T03:39:40;35.13;;;17.48;;
4636;SDS011;2331;48.806;9.140;2022-11-30T03:42:06;34.85;;;18.90;;
4636;SDS011;2331;48.806;9.140;2022-11-30T03:44:33;34.08;;;18.00;;
4636;SDS011;2331;48.806;9.140;2022-11-30T03:47:00;30.67;;;17.35;;
4636;SDS011;2331;48.806;9.140;2022-11-30T03:49:27;32.25;;;16.40;;
4636;SDS011;2331;48.806;9.140;2022-11-30T03:51:55;30.08;;;16.50;;
4636;SDS011;2331;48.806;9.140;2022-11-30T03:54:21;30.38;;;16.92;;
4636;SDS011;2331;48.806;9.140;2022-11-30T03:56:48;30.95;;;18.58;;
4636;SDS011;2331;48.806;9.140;2022-11-30T03:59:15;30.92;;;16.52;;
4636;SDS011;2331;48.806;9.140;2022-11-30T04:01:41;31.20;;;17.35;;
4636;SDS011;2331;48.806;9.140;2022-11-30T04:04:09;30.63;;;17.65;;
4636;SDS011;2331;48.806;9.140;2022-11-30T04:06:36;26.83;;;16.33;;
4636;SDS011;2331;48.806;9.140;2022-11-30T04:09:05;32.28;;;16.77;;
4636;SDS011;2331;48.806;9.140;2022-11-30T04:11:33;27.90;;;16.40;;
4636;SDS011;2331;48.806;9.140;2022-11-30T04:14:00;34.58;;;17.08;;
4636;SDS011;2331;48.806;9.140;2022-11-30T04:16:26;28.20;;;15.93;;
4636;SDS011;2331;48.806;9.140;2022-11-30T04:18:53;28.65;;;16.75;;
4636;SDS011;2331;48.806;9.140;2022-11-30T04:21:20;29.30;;;15.82;;
4636;SDS011;2331;48.806;9.140;2022-11-30T04:23:47;30.58;;;16.77;;
4636;SDS011;2331;48.806;9.140;2022-11-30T04:26:15;29.10;;;15.88;;
4636;SDS011;2331;48.806;9.140;2022-11-30T04:28:42;30.10;;;16.15;;
4636;SDS011;2331;48.806;9.140;2022-11-30T04:31:08;27.75;;;15.13;;
4636;SDS011;2331;48.806;9.140;2022-11-30T04:33:35;32.22;;;15.45;;
4636;SDS011;2331;48.806;9.140;2022-11-30T04:36:03;29.98;;;15.13;;
4636;SDS011;2331;48.806;9.140;2022-11-30T04:38:31;25.65;;;14.10;;
4636;SDS011;2331;48.806;9.140;2022-11-30T04:41:04;27.00;;;15.25;;
4636;SDS011;2331;48.806;9.140;2022-11-30T04:43:34;24.52;;;14.00;;
4636;SDS011;2331;48.806;9.140;2022-11-30T04:46:01;27.30;;;14.95;;
4636;SDS011;2331;48.806;9.140;2022-11-30T04:48:27;30.55;;;15.50;;
4636;SDS011;2331;48.806;9.140;2022-11-30T04:50:58;27.20;;;14.00;;
4636;SDS011;2331;48.806;9.140;2022-11-30T04:53:25;26.50;;;14.75;;
4636;SDS011;2331;48.806;9.140;2022-11-30T04:55:52;24.70;;;14.25;;
4636;SDS011;2331;48.806;9.140;2022-11-30T04:58:19;22.98;;;13.25;;
4636;SDS011;2331;48.806;9.140;2022-11-30T05:00:47;23.50;;;12.50;;
4636;SDS011;2331;48.806;9.140;2022-11-30T05:03:13;25.13;;;13.68;;
4636;SDS011;2331;48.806;9.140;2022-11-30T05:05:40;23.92;;;13.52;;
4636;SDS011;2331;48.806;9.140;2022-11-30T05:08:07;29.27;;;14.70;;
4636;SDS011;2331;48.806;9.140;2022-11-30T05:10:34;25.38;;;14.15;;
4636;SDS011;2331;48.806;9.140;2022-11-30T05:13:01;23.00;;;12.82;;
4636;SDS011;2331;48.806;9.140;2022-11-30T05:15:28;23.40;;;14.05;;
4636;SDS011;2331;48.806;9.140;2022-11-30T05:17:58;22.10;;;13.20;;
4636;SDS011;2331;48.806;9.140;2022-11-30T05:20:25;21.73;;;12.27;;
4636;SDS011;2331;48.806;9.140;2022-11-30T05:22:51;21.55;;;12.68;;
4636;SDS011;2331;48.806;9.140;2022-11-30T05:25:18;19.58;;;12.82;;
4636;SDS011;2331;48.806;9.140;2022-11-30T05:27:45;24.88;;;13.15;;
4636;SDS011;2331;48.806;9.140;2022-11-30T05:30:12;22.27;;;12.68;;
4636;SDS011;2331;48.806;9.140;2022-11-30T05:32:39;23.98;;;12.90;;
4636;SDS011;2331;48.806;9.140;2022-11-30T05:35:07;21.17;;;12.05;;
4636;SDS011;2331;48.806;9.140;2022-11-30T05:37:34;23.85;;;13.00;;
4636;SDS011;2331;48.806;9.140;2022-11-30T05:40:01;22.00;;;12.90;;
4636;SDS011;2331;48.806;9.140;2022-11-30T05:42:28;21.38;;;11.85;;
4636;SDS011;2331;48.806;9.140;2022-11-30T05:44:55;19.52;;;12.00;;
4636;SDS011;2331;48.806;9.140;2022-11-30T05:47:21;25.48;;;13.23;;
4636;SDS011;2331;48.806;9.140;2022-11-30T05:49:48;18.92;;;12.50;;
4636;SDS011;2331;48.806;9.140;2022-11-30T05:52:16;22.33;;;11.77;;
4636;SDS011;2331;48.806;9.140;2022-11-30T05:54:43;20.58;;;11.43;;
4636;SDS011;2331;48.806;9.140;2022-11-30T05:57:10;19.65;;;11.63;;
4636;SDS011;2331;48.806;9.140;2022-11-30T05:59:36;20.35;;;10.98;;
4636;SDS011;2331;48.806;9.140;2022-11-30T06:02:03;22.70;;;13.00;;
4636;SDS011;2331;48.806;9.140;2022-11-30T06:04:30;20.00;;;12.07;;
4636;SDS011;2331;48.806;9.140;2022-11-30T06:06:58;22.33;;;12.73;;
4636;SDS011;2331;48.806;9.140;2022-11-30T06:09:27;21.88;;;12.57;;
4636;SDS011;2331;48.806;9.140;2022-11-30T06:11:54;25.67;;;12.75;;
4636;SDS011;2331;48.806;9.140;2022-11-30T06:14:20;23.23;;;12.85;;
4636;SDS011;2331;48.806;9.140;2022-11-30T06:16:47;21.80;;;12.20;;
4636;SDS011;2331;48.806;9.140;2022-11-30T06:19:14;19.55;;;11.27;;
4636;SDS011;2331;48.806;9.140;2022-11-30T06:21:40;22.83;;;13.55;;
4636;SDS011;2331;48.806;9.140;2022-11-30T06:24:07;23.52;;;11.50;;
4636;SDS011;2331;48.806;9.140;2022-11-30T06:26:36;19.40;;;11.25;;
4636;SDS011;2331;48.806;9.140;2022-11-30T06:29:03;21.63;;;12.80;;
4636;SDS011;2331;48.806;9.140;2022-11-30T06:31:30;21.98;;;12.15;;
4636;SDS011;2331;48.806;9.140;2022-11-30T06:33:57;22.10;;;12.27;;
4636;SDS011;2331;48.806;9.140;2022-11-30T06:36:24;20.90;;;11.77;;
4636;SDS011;2331;48.806;9.140;2022-11-30T06:38:51;23.40;;;12.52;;
4636;SDS011;2331;48.806;9.140;2022-11-30T06:41:18;20.80;;;12.45;;
4636;SDS011;2331;48.806;9.140;2022-11-30T06:43:46;18.75;;;11.60;;
4636;SDS011;2331;48.806;9.140;2022-11-30T06:46:12;18.70;;;11.35;;
4636;SDS011;2331;48.806;9.140;2022-11-30T06:48:39;21.33;;;12.27;;
4636;SDS011;2331;48.806;9.140;2022-11-30T06:51:06;20.67;;;11.57;;
4636;SDS011;2331;48.806;9.140;2022-11-30T06:53:33;20.92;;;12.25;;
4636;SDS011;2331;48.806;9.140;2022-11-30T06:56:02;23.15;;;12.32;;
4636;SDS011;2331;48.806;9.140;2022-11-30T06:58:30;19.50;;;11.55;;
4636;SDS011;2331;48.806;9.140;2022-11-30T07:00:58;20.05;;;11.60;;
4636;SDS011;2331;48.806;9.140;2022-11-30T07:03:25;21.67;;;12.57;;
4636;SDS011;2331;48.806;9.140;2022-11-30T07:05:53;21.73;;;12.38;;
4636;SDS011;2331;48.806;9.140;2022-11-30T07:08:20;18.88;;;10.85;;
4636;SDS011;2331;48.806;9.140;2022-11-30T07:10:47;21.35;;;11.75;;
4636;SDS011;2331;48.806;9.140;2022-11-30T07:13:14;18.75;;;11.23;;
4636;SDS011;2331;48.806;9.140;2022-11-30T07:15:42;19.92;;;11.77;;
4636;SDS011;2331;48.806;9.140;2022-11-30T07:18:11;22.63;;;12.35;;
4636;SDS011;2331;48.806;9.140;2022-11-30T07:20:38;19.40;;;11.32;;
4636;SDS011;2331;48.806;9.140;2022-11-30T07:23:05;20.98;;;12.13;;
4636;SDS011;2331;48.806;9.140;2022-11-30T07:25:46;17.67;;;10.52;;
4636;SDS011;2331;48.806;9.140;2022-11-30T07:28:32;22.55;;;11.25;;
4636;SDS011;2331;48.806;9.140;2022-11-30T07:31:00;18.70;;;11.20;;
4636;SDS011;2331;48.806;9.140;2022-11-30T07:33:28;22.63;;;12.65;;
4636;SDS011;2331;48.806;9.140;2022-11-30T07:35:56;21.33;;;12.18;;
4636;SDS011;2331;48.806;9.140;2022-11-30T07:38:23;17.33;;;11.00;;
4636;SDS011;2331;48.806;9.140;2022-11-30T07:40:49;19.88;;;12.13;;
4636;SDS011;2331;48.806;9.140;2022-11-30T07:43:16;20.48;;;11.20;;
4636;SDS011;2331;48.806;9.140;2022-11-30T07:45:49;20.70;;;11.10;;
4636;SDS011;2331;48.806;9.140;2022-11-30T07:48:16;20.58;;;11.23;;
4636;SDS011;2331;48.806;9.140;2022-11-30T07:50:44;21.65;;;12.18;;
4636;SDS011;2331;48.806;9.140;2022-11-30T07:53:11;19.98;;;12.15;;
4636;SDS011;2331;48.806;9.140;2022-11-30T07:55:38;23.15;;;12.85;;
4636;SDS011;2331;48.806;9.140;2022-11-30T07:58:05;19.98;;;11.60;;
4636;SDS011;2331;48.806;9.140;2022-11-30T08:00:31;18.27;;;11.52;;
4636;SDS011;2331;48.806;9.140;2022-11-30T08:02:58;19.50;;;12.18;;
4636;SDS011;2331;48.806;9.140;2022-11-30T08:05:25;20.27;;;12.10;;
4636;SDS011;2331;48.806;9.140;2022-11-30T08:07:53;22.98;;;12.25;;
4636;SDS011;2331;48.806;9.140;2022-11-30T08:10:20;21.80;;;13.60;;
4636;SDS011;2331;48.806;9.140;2022-11-30T08:12:48;22.73;;;13.63;;
4636;SDS011;2331;48.806;9.140;2022-11-30T08:15:15;26.17;;;14.40;;
4636;SDS011;2331;48.806;9.140;2022-11-30T08:17:42;26.15;;;14.65;;
4636;SDS011;2331;48.806;9.140;2022-11-30T08:20:09;21.38;;;13.52;;
4636;SDS011;2331;48.806;9.140;2022-11-30T08:22:37;24.77;;;13.95;;
4636;SDS011;2331;48.806;9.140;2022-11-30T08:25:05;24.38;;;14.70;;
4636;SDS011;2331;48.806;9.140;2022-11-30T08:27:33;28.38;;;14.52;;
4636;SDS011;2331;48.806;9.140;2022-11-30T08:30:00;23.23;;;13.10;;
4636;SDS011;2331;48.806;9.140;2022-11-30T08:32:26;27.83;;;14.35;;
4636;SDS011;2331;48.806;9.140;2022-11-30T08:34:53;24.45;;;13.15;;
4636;SDS011;2331;48.806;9.140;2022-11-30T08:37:20;23.80;;;14.18;;
4636;SDS011;2331;48.806;9.140;2022-11-30T08:39:46;24.55;;;13.25;;
4636;SDS011;2331;48.806;9.140;2022-11-30T08:42:14;23.05;;;13.35;;
4636;SDS011;2331;48.806;9.140;2022-11-30T08:44:41;23.30;;;13.52;;
4636;SDS011;2331;48.806;9.140;2022-11-30T08:47:08;25.95;;;14.65;;
4636;SDS011;2331;48.806;9.140;2022-11-30T08:49:35;23.85;;;13.88;;
4636;SDS011;2331;48.806;9.140;2022-11-30T08:52:01;31.33;;;15.20;;
4636;SDS011;2331;48.806;9.140;2022-11-30T08:54:29;22.83;;;13.82;;
4636;SDS011;2331;48.806;9.140;2022-11-30T08:56:56;24.63;;;13.57;;
4636;SDS011;2331;48.806;9.140;2022-11-30T08:59:25;24.02;;;14.10;;
4636;SDS011;2331;48.806;9.140;2022-11-30T09:01:51;24.67;;;14.35;;
4636;SDS011;2331;48.806;9.140;2022-11-30T09:04:18;26.60;;;14.50;;
4636;SDS011;2331;48.806;9.140;2022-11-30T09:06:45;22.90;;;13.80;;
4636;SDS011;2331;48.806;9.140;2022-11-30T09:09:12;24.10;;;14.07;;
4636;SDS011;2331;48.806;9.140;2022-11-30T09:11:38;27.15;;;14.52;;
4636;SDS011;2331;48.806;9.140;2022-11-30T09:14:05;25.23;;;14.98;;
4636;SDS011;2331;48.806;9.140;2022-11-30T09:16:34;25.92;;;14.52;;
4636;SDS011;2331;48.806;9.140;2022-11-30T09:19:01;26.98;;;15.05;;
4636;SDS011;2331;48.806;9.140;2022-11-30T09:21:28;24.90;;;14.30;;
4636;SDS011;2331;48.806;9.140;2022-11-30T09:23:54;27.45;;;14.52;;
4636;SDS011;2331;48.806;9.140;2022-11-30T09:26:21;24.00;;;14.50;;
4636;SDS011;2331;48.806;9.140;2022-11-30T09:28:49;25.45;;;15.23;;
4636;SDS011;2331;48.806;9.140;2022-11-30T09:31:18;24.77;;;14.52;;
4636;SDS011;2331;48.806;9.140;2022-11-30T09:33:47;23.35;;;14.38;;
4636;SDS011;2331;48.806;9.140;2022-11-30T09:36:15;27.85;;;15.57;;
4636;SDS011;2331;48.806;9.140;2022-11-30T09:38:43;26.52;;;14.15;;
4636;SDS011;2331;48.806;9.140;2022-11-30T09:41:27;24.40;;;13.15;;
4636;SDS011;2331;48.806;9.140;2022-11-30T09:44:15;28.08;;;14.95;;
4636;SDS011;2331;48.806;9.140;2022-11-30T09:46:51;27.50;;;14.98;;
4636;SDS011;2331;48.806;9.140;2022-11-30T09:49:25;30.05;;;15.27;;
4636;SDS011;2331;48.806;9.140;2022-11-30T09:51:55;27.65;;;15.25;;
4636;SDS011;2331;48.806;9.140;2022-11-30T09:54:24;28.77;;;15.75;;
4636;SDS011;2331;48.806;9.140;2022-11-30T09:56:59;25.48;;;14.88;;
4636;SDS011;2331;48.806;9.140;2022-11-30T09:59:29;30.98;;;15.95;;
4636;SDS011;2331;48.806;9.140;2022-11-30T10:01:58;31.15;;;15.88;;
4636;SDS011;2331;48.806;9.140;2022-11-30T10:04:39;28.90;;;15.40;;
4636;SDS011;2331;48.806;9.140;2022-11-30T10:07:08;31.38;;;16.23;;
4636;SDS011;2331;48.806;9.140;2022-11-30T10:09:44;26.33;;;14.68;;
4636;SDS011;2331;48.806;9.140;2022-11-30T10:12:16;25.88;;;13.70;;
4636;SDS011;2331;48.806;9.140;2022-11-30T10:17:41;31.10;;;14.85;;
4636;SDS011;2331;48.806;9.140;2022-11-30T10:23:22;26.73;;;14.52;;
4636;SDS011;2331;48.806;9.140;2022-11-30T10:26:00;24.67;;;12.93;;
4636;SDS011;2331;48.806;9.140;2022-11-30T10:28:34;28.75;;;15.27;;
4636;SDS011;2331;48.806;9.140;2022-11-30T10:31:11;26.15;;;13.85;;
4636;SDS011;2331;48.806;9.140;2022-11-30T10:33:40;33.72;;;16.00;;
4636;SDS011;2331;48.806;9.140;2022-11-30T10:36:13;31.60;;;16.98;;
4636;SDS011;2331;48.806;9.140;2022-11-30T10:38:51;26.67;;;15.35;;
4636;SDS011;2331;48.806;9.140;2022-11-30T10:41:22;29.95;;;16.70;;
4636;SDS011;2331;48.806;9.140;2022-11-30T10:43:53;29.77;;;16.15;;
4636;SDS011;2331;48.806;9.140;2022-11-30T10:46:26;27.05;;;16.08;;
4636;SDS011;2331;48.806;9.140;2022-11-30T10:48:56;32.83;;;16.63;;
4636;SDS011;2331;48.806;9.140;2022-11-30T10:51:28;27.13;;;14.98;;
4636;SDS011;2331;48.806;9.140;2022-11-30T10:53:57;27.30;;;15.02;;
4636;SDS011;2331;48.806;9.140;2022-11-30T10:56:24;28.15;;;14.57;;
4636;SDS011;2331;48.806;9.140;2022-11-30T10:58:52;30.58;;;15.23;;
4636;SDS011;2331;48.806;9.140;2022-11-30T11:01:30;22.88;;;14.23;;
4636;SDS011;2331;48.806;9.140;2022-11-30T11:04:11;26.65;;;14.52;;
4636;SDS011;2331;48.806;9.140;2022-11-30T11:06:43;25.83;;;14.00;;
4636;SDS011;2331;48.806;9.140;2022-11-30T11:09:31;24.08;;;13.70;;
4636;SDS011;2331;48.806;9.140;2022-11-30T11:12:01;28.10;;;14.18;;
4636;SDS011;2331;48.806;9.140;2022-11-30T11:14:29;24.00;;;13.50;;
4636;SDS011;2331;48.806;9.140;2022-11-30T11:16:57;29.10;;;14.18;;
4636;SDS011;2331;48.806;9.140;2022-11-30T11:19:30;25.02;;;12.85;;
4636;SDS011;2331;48.806;9.140;2022-11-30T11:22:03;27.27;;;13.48;;
4636;SDS011;2331;48.806;9.140;2022-11-30T11:24:32;29.35;;;15.40;;
4636;SDS011;2331;48.806;9.140;2022-11-30T11:26:59;34.60;;;15.00;;
4636;SDS011;2331;48.806;9.140;2022-11-30T11:29:28;39.35;;;16.48;;
4636;SDS011;2331;48.806;9.140;2022-11-30T11:32:04;28.05;;;14.90;;
4636;SDS011;2331;48.806;9.140;2022-11-30T11:34:42;26.70;;;14.27;;
4636;SDS011;2331;48.806;9.140;2022-11-30T11:37:13;25.08;;;13.50;;
4636;SDS011;2331;48.806;9.140;2022-11-30T11:39:52;28.55;;;14.38;;
4636;SDS011;2331;48.806;9.140;2022-11-30T11:42:25;26.23;;;13.75;;
4636;SDS011;2331;48.806;9.140;2022-11-30T11:44:55;29.35;;;15.02;;
4636;SDS011;2331;48.806;9.140;2022-11-30T11:47:24;27.63;;;15.13;;
4636;SDS011;2331;48.806;9.140;2022-11-30T11:52:49;22.40;;;13.00;;
4636;SDS011;2331;48.806;9.140;2022-11-30T11:55:31;22.60;;;13.00;;
4636;SDS011;2331;48.806;9.140;2022-11-30T11:57:59;21.23;;;11.90;;
4636;SDS011;2331;48.806;9.140;2022-11-30T12:00:28;24.80;;;13.18;;
4636;SDS011;2331;48.806;9.140;2022-11-30T12:02:57;21.73;;;12.32;;
4636;SDS011;2331;48.806;9.140;2022-11-30T12:05:30;19.20;;;11.43;;
4636;SDS011;2331;48.806;9.140;2022-11-30T12:08:06;20.77;;;12.18;;
4636;SDS011;2331;48.806;9.140;2022-11-30T12:10:40;21.77;;;12.32;;
4636;SDS011;2331;48.806;9.140;2022-11-30T12:13:11;19.45;;;11.70;;
4636;SDS011;2331;48.806;9.140;2022-11-30T12:15:43;23.42;;;13.30;;
4636;SDS011;2331;48.806;9.140;2022-11-30T12:18:20;21.10;;;13.13;;
4636;SDS011;2331;48.806;9.140;2022-11-30T12:20:54;26.25;;;12.57;;
4636;SDS011;2331;48.806;9.140;2022-11-30T12:26:19;18.95;;;11.55;;
4636;SDS011;2331;48.806;9.140;2022-11-30T12:28:58;21.80;;;11.95;;
4636;SDS011;2331;48.806;9.140;2022-11-30T12:31:48;22.75;;;12.15;;
4636;SDS011;2331;48.806;9.140;2022-11-30T12:34:29;21.10;;;12.70;;
4636;SDS011;2331;48.806;9.140;2022-11-30T12:37:07;21.17;;;12.00;;
4636;SDS011;2331;48.806;9.140;2022-11-30T12:39:43;22.27;;;12.07;;
4636;SDS011;2331;48.806;9.140;2022-11-30T12:42:17;20.63;;;11.60;;
4636;SDS011;2331;48.806;9.140;2022-11-30T12:44:52;24.65;;;12.55;;
4636;SDS011;2331;48.806;9.140;2022-11-30T12:47:27;24.73;;;11.77;;
4636;SDS011;2331;48.806;9.140;2022-11-30T12:50:07;21.65;;;12.75;;
4636;SDS011;2331;48.806;9.140;2022-11-30T12:52:50;16.63;;;9.95;;
4636;SDS011;2331;48.806;9.140;2022-11-30T12:55:27;23.75;;;12.35;;
4636;SDS011;2331;48.806;9.140;2022-11-30T12:58:03;20.20;;;11.40;;
4636;SDS011;2331;48.806;9.140;2022-11-30T13:00:39;20.35;;;11.70;;
4636;SDS011;2331;48.806;9.140;2022-11-30T13:03:17;22.17;;;12.60;;
4636;SDS011;2331;48.806;9.140;2022-11-30T13:06:08;23.42;;;12.70;;
4636;SDS011;2331;48.806;9.140;2022-11-30T13:08:41;25.80;;;13.20;;
4636;SDS011;2331;48.806;9.140;2022-11-30T13:11:18;24.10;;;12.93;;
4636;SDS011;2331;48.806;9.140;2022-11-30T13:13:50;25.90;;;12.85;;
4636;SDS011;2331;48.806;9.140;2022-11-30T13:16:19;20.38;;;13.00;;
4636;SDS011;2331;48.806;9.140;2022-11-30T13:18:48;23.85;;;13.00;;
4636;SDS011;2331;48.806;9.140;2022-11-30T13:21:18;21.73;;;12.43;;
4636;SDS011;2331;48.806;9.140;2022-11-30T13:23:52;22.27;;;12.30;;
4636;SDS011;2331;48.806;9.140;2022-11-30T13:26:26;22.40;;;12.65;;
4636;SDS011;2331;48.806;9.140;2022-11-30T13:29:01;26.00;;;13.98;;
4636;SDS011;2331;48.806;9.140;2022-11-30T13:31:40;21.45;;;12.70;;
4636;SDS011;2331;48.806;9.140;2022-11-30T13:34:21;21.25;;;12.32;;
4636;SDS011;2331;48.806;9.140;2022-11-30T13:36:49;18.63;;;11.30;;
4636;SDS011;2331;48.806;9.140;2022-11-30T13:39:21;20.25;;;11.15;;
4636;SDS011;2331;48.806;9.140;2022-11-30T13:42:07;23.45;;;12.27;;
4636;SDS011;2331;48.806;9.140;2022-11-30T13:45:00;18.92;;;10.68;;
4636;SDS011;2331;48.806;9.140;2022-11-30T13:47:42;18.13;;;10.98;;
4636;SDS011;2331;48.806;9.140;2022-11-30T13:50:15;21.42;;;12.13;;
4636;SDS011;2331;48.806;9.140;2022-11-30T13:55:48;19.38;;;10.68;;
4636;SDS011;2331;48.806;9.140;2022-11-30T13:58:28;19.05;;;10.27;;
4636;SDS011;2331;48.806;9.140;2022-11-30T14:04:20;18.58;;;10.70;;
4636;SDS011;2331;48.806;9.140;2022-11-30T14:06:57;20.40;;;11.65;;
4636;SDS011;2331;48.806;9.140;2022-11-30T14:12:35;20.73;;;11.00;;
4636;SDS011;2331;48.806;9.140;2022-11-30T14:18:20;19.73;;;11.00;;
4636;SDS011;2331;48.806;9.140;2022-11-30T14:20:50;21.73;;;12.23;;
4636;SDS011;2331;48.806;9.140;2022-11-30T14:23:23;23.33;;;11.50;;
4636;SDS011;2331;48.806;9.140;2022-11-30T14:25:55;21.52;;;11.60;;
4636;SDS011;2331;48.806;9.140;2022-11-30T14:28:25;19.00;;;10.80;;
4636;SDS011;2331;48.806;9.140;2022-11-30T14:30:59;19.05;;;10.85;;
4636;SDS011;2331;48.806;9.140;2022-11-30T14:33:29;20.88;;;11.20;;
4636;SDS011;2331;48.806;9.140;2022-11-30T14:36:03;20.15;;;11.00;;
4636;SDS011;2331;48.806;9.140;2022-11-30T14:38:33;17.08;;;10.02;;
4636;SDS011;2331;48.806;9.140;2022-11-30T14:41:05;17.67;;;11.07;;
4636;SDS011;2331;48.806;9.140;2022-11-30T14:43:32;21.85;;;11.32;;
4636;SDS011;2331;48.806;9.140;2022-11-30T14:45:59;20.50;;;11.27;;
4636;SDS011;2331;48.806;9.140;2022-11-30T14:48:29;18.25;;;11.23;;
4636;SDS011;2331;48.806;9.140;2022-11-30T14:50:56;19.85;;;11.02;;
4636;SDS011;2331;48.806;9.140;2022-11-30T14:53:28;14.50;;;9.75;;
4636;SDS011;2331;48.806;9.140;2022-11-30T14:56:03;19.02;;;10.95;;
4636;SDS011;2331;48.806;9.140;2022-11-30T14:58:36;19.15;;;10.05;;
4636;SDS011;2331;48.806;9.140;2022-11-30T15:01:12;19.55;;;11.73;;
4636;SDS011;2331;48.806;9.140;2022-11-30T15:03:44;20.15;;;11.57;;
4636;SDS011;2331;48.806;9.140;2022-11-30T15:06:13;22.52;;;10.68;;
4636;SDS011;2331;48.806;9.140;2022-11-30T15:08:42;20.83;;;11.70;;
4636;SDS011;2331;48.806;9.140;2022-11-30T15:11:12;18.15;;;11.05;;
4636;SDS011;2331;48.806;9.140;2022-11-30T15:13:40;20.67;;;11.20;;
4636;SDS011;2331;48.806;9.140;2022-11-30T15:16:14;18.23;;;10.73;;
4636;SDS011;2331;48.806;9.140;2022-11-30T15:18:45;19.05;;;11.13;;
4636;SDS011;2331;48.806;9.140;2022-11-30T15:21:14;20.27;;;11.50;;
4636;SDS011;2331;48.806;9.140;2022-11-30T15:23:43;19.23;;;11.32;;
4636;SDS011;2331;48.806;9.140;2022-11-30T15:26:12;19.42;;;11.50;;
4636;SDS011;2331;48.806;9.140;2022-11-30T15:28:41;23.20;;;12.35;;
4636;SDS011;2331;48.806;9.140;2022-11-30T15:31:12;27.55;;;13.35;;